Mustafa Dayi — TCZF2 — position and weather

sailwx.info

Track history (hours):
 
Tides and Currents Weather Stations Pressure Air Temp Water Temp Dewpoint Dewpoint Depression Visibility Wind Speed Wind Dir Waves Ship Positions

Mustafa Dayi

Last reported at 2016-Jun-22 08:18 UTC. Time now 2016-Jun-25 12:30 UTC.
Position N 40°43' E 028°58'.

Length 183 m; draft 8.9 m.

Type: Cargo ship. MMSI: 271042433.

Date/timePositionNaut miles runAvg speedWind from/ knotsBaromVisibWave heightAir tempDewpointWater temp
2016-Jun-22 08:18N 40°43' E 028°58'1216.9
2016-Jun-22 07:33N 40°44' E 029°15'1312.4
2016-Jun-22 06:30N 40°45' E 029°32'0 0.0
2016-Jun-21 15:31N 40°45' E 029°32'1111.4
2016-Jun-21 14:33N 40°43' E 029°18'1616.0
2016-Jun-21 13:33N 40°40' E 028°57'15 7.6
2016-Jun-21 11:33N 40°25' E 029°04'1 0.3
2016-Jun-21 08:18N 40°25' E 029°05'0 0.0
2016-Jun-21 07:30N 40°25' E 029°05'0 0.0
2016-Jun-21 03:22N 40°25' E 029°05'0 0.0
2016-Jun-21 02:09N 40°25' E 029°05'0 0.0
2016-Jun-21 01:27N 40°25' E 029°05'0 0.0
2016-Jun-21 00:33N 40°25' E 029°05'0 0.0
2016-Jun-20 23:32N 40°25' E 029°05'0 0.0
2016-Jun-20 22:32N 40°25' E 029°05'0 0.0
2016-Jun-20 21:13N 40°25' E 029°05'0 0.0
2016-Jun-20 20:10N 40°25' E 029°05'28 9.9
2016-Jun-20 17:21N 40°47' E 028°42'137 4.7
2016-Jun-19 12:26N 39°55' E 025°55'1415.8
2016-Jun-19 11:33N 39°42' E 025°50'13216.3
2016-Jun-19 03:26N 37°29' E 025°55'  
2016-Jun-16 18:34N 31°12' E 029°44'0 0.0
2016-Jun-16 17:33N 31°12' E 029°44'0 0.0
2016-Jun-16 16:27N 31°12' E 029°44'0 0.0
2016-Jun-16 13:25N 31°12' E 029°44'196 7.3
2016-Jun-15 10:33N 32°04' E 033°26'1715.8
2016-Jun-15 09:30N 32°06' E 033°46'1515.6
2016-Jun-15 08:34N 32°02' E 034°02'1716.8
2016-Jun-15 07:34N 31°56' E 034°21'1615.7
2016-Jun-15 06:34N 31°51' E 034°38'2 0.9
2016-Jun-15 04:31N 31°49' E 034°39'0 0.0
2016-Jun-15 03:31N 31°49' E 034°39'0 0.0
2016-Jun-15 02:33N 31°49' E 034°39'0 0.0
2016-Jun-15 01:33N 31°49' E 034°39'0 0.0
2016-Jun-15 00:32N 31°49' E 034°39'0 0.0
2016-Jun-14 23:32N 31°49' E 034°39'0 0.0
2016-Jun-14 22:32N 31°49' E 034°39'0 0.0
2016-Jun-14 21:16N 31°49' E 034°39'0 0.0
2016-Jun-14 20:22N 31°49' E 034°39'0 0.0
2016-Jun-14 19:33N 31°49' E 034°39'0 0.0
2016-Jun-14 18:30N 31°49' E 034°39'0 0.0
2016-Jun-14 17:20N 31°49' E 034°39'0 0.0
2016-Jun-14 15:32N 31°49' E 034°39'0 0.0
2016-Jun-14 14:31N 31°49' E 034°39'0 0.0
2016-Jun-14 13:31N 31°49' E 034°39'0 0.0
2016-Jun-14 12:33N 31°49' E 034°39'0 0.0
2016-Jun-14 11:06N 31°49' E 034°39'0 0.0
2016-Jun-14 10:32N 31°49' E 034°39'0 0.0
2016-Jun-14 09:29N 31°49' E 034°39'0 0.0
2016-Jun-14 08:29N 31°49' E 034°39'0 0.0
2016-Jun-14 07:28N 31°49' E 034°39'0 0.0
2016-Jun-14 06:31N 31°49' E 034°39'0 0.0
2016-Jun-14 05:33N 31°49' E 034°39'0 0.0
2016-Jun-14 04:33N 31°49' E 034°39'2 1.8
2016-Jun-14 03:33N 31°51' E 034°38'1 0.1
2016-Jun-13 19:10N 31°51' E 034°37'0 0.0
2016-Jun-13 13:16N 31°51' E 034°37'1810.6
2016-Jun-13 11:34N 32°09' E 034°35'1414.4
2016-Jun-13 10:34N 32°22' E 034°40'1414.5
2016-Jun-13 09:34N 32°36' E 034°44'1514.7
2016-Jun-13 08:34N 32°50' E 034°50'10 9.6
2016-Jun-13 07:33N 32°49' E 035°01'0 0.3
2016-Jun-13 06:31N 32°49' E 035°01'0 0.0
2016-Jun-13 05:33N 32°49' E 035°01'0 0.0
2016-Jun-13 04:33N 32°49' E 035°01'0 0.0
2016-Jun-13 03:33N 32°49' E 035°01'0 0.0
2016-Jun-13 02:32N 32°49' E 035°01'0 0.0
2016-Jun-13 01:32N 32°49' E 035°01'0 0.0
2016-Jun-13 00:31N 32°49' E 035°01'0 0.0
2016-Jun-12 23:31N 32°49' E 035°01'0 0.0
2016-Jun-12 22:33N 32°49' E 035°01'0 0.0
2016-Jun-12 21:33N 32°49' E 035°01'0 0.0
2016-Jun-12 20:33N 32°49' E 035°01'0 0.0
2016-Jun-12 19:32N 32°49' E 035°01'0 0.0
2016-Jun-12 18:32N 32°49' E 035°01'0 0.0
2016-Jun-12 17:31N 32°49' E 035°01'0 0.0
2016-Jun-12 16:31N 32°49' E 035°01'0 0.0
2016-Jun-12 15:33N 32°49' E 035°01'0 0.0
2016-Jun-12 14:33N 32°49' E 035°01'0 0.0
2016-Jun-12 13:32N 32°49' E 035°01'0 0.0
2016-Jun-12 12:32N 32°49' E 035°01'0 0.0
2016-Jun-12 11:29N 32°49' E 035°01'0 0.0
2016-Jun-12 10:31N 32°49' E 035°01'0 0.0
2016-Jun-12 09:31N 32°49' E 035°01'2 2.0
2016-Jun-12 08:33N 32°51' E 035°00'  
Track history (hours):
 
Tides and Currents Weather Stations Pressure Air Temp Water Temp Dewpoint Dewpoint Depression Visibility Wind Speed Wind Dir Waves Ship Positions

Mustafa Dayi

Last reported at 2016-Jun-22 08:18 UTC. Time now 2016-Jun-25 12:30 UTC.
Position N 40°43' E 028°58'.

Length 183 m; draft 8.9 m.

Type: Cargo ship. MMSI: 271042433.

Date/timePositionNaut miles runAvg speedWind from/ knotsBaromVisibWave heightAir tempDewpointWater temp
2016-Jun-22 08:18N 40°43' E 028°58'1216.9
2016-Jun-22 07:33N 40°44' E 029°15'1312.4
2016-Jun-22 06:30N 40°45' E 029°32'0 0.0
2016-Jun-21 15:31N 40°45' E 029°32'1111.4
2016-Jun-21 14:33N 40°43' E 029°18'1616.0
2016-Jun-21 13:33N 40°40' E 028°57'15 7.6
2016-Jun-21 11:33N 40°25' E 029°04'1 0.3
2016-Jun-21 08:18N 40°25' E 029°05'0 0.0
2016-Jun-21 07:30N 40°25' E 029°05'0 0.0
2016-Jun-21 03:22N 40°25' E 029°05'0 0.0
2016-Jun-21 02:09N 40°25' E 029°05'0 0.0
2016-Jun-21 01:27N 40°25' E 029°05'0 0.0
2016-Jun-21 00:33N 40°25' E 029°05'0 0.0
2016-Jun-20 23:32N 40°25' E 029°05'0 0.0
2016-Jun-20 22:32N 40°25' E 029°05'0 0.0
2016-Jun-20 21:13N 40°25' E 029°05'0 0.0
2016-Jun-20 20:10N 40°25' E 029°05'28 9.9
2016-Jun-20 17:21N 40°47' E 028°42'137 4.7
2016-Jun-19 12:26N 39°55' E 025°55'1415.8
2016-Jun-19 11:33N 39°42' E 025°50'13216.3
2016-Jun-19 03:26N 37°29' E 025°55'  
2016-Jun-16 18:34N 31°12' E 029°44'0 0.0
2016-Jun-16 17:33N 31°12' E 029°44'0 0.0
2016-Jun-16 16:27N 31°12' E 029°44'0 0.0
2016-Jun-16 13:25N 31°12' E 029°44'196 7.3
2016-Jun-15 10:33N 32°04' E 033°26'1715.8
2016-Jun-15 09:30N 32°06' E 033°46'1515.6
2016-Jun-15 08:34N 32°02' E 034°02'1716.8
2016-Jun-15 07:34N 31°56' E 034°21'1615.7
2016-Jun-15 06:34N 31°51' E 034°38'2 0.9
2016-Jun-15 04:31N 31°49' E 034°39'0 0.0
2016-Jun-15 03:31N 31°49' E 034°39'0 0.0
2016-Jun-15 02:33N 31°49' E 034°39'0 0.0
2016-Jun-15 01:33N 31°49' E 034°39'0 0.0
2016-Jun-15 00:32N 31°49' E 034°39'0 0.0
2016-Jun-14 23:32N 31°49' E 034°39'0 0.0
2016-Jun-14 22:32N 31°49' E 034°39'0 0.0
2016-Jun-14 21:16N 31°49' E 034°39'0 0.0
2016-Jun-14 20:22N 31°49' E 034°39'0 0.0
2016-Jun-14 19:33N 31°49' E 034°39'0 0.0
2016-Jun-14 18:30N 31°49' E 034°39'0 0.0
2016-Jun-14 17:20N 31°49' E 034°39'0 0.0
2016-Jun-14 15:32N 31°49' E 034°39'0 0.0
2016-Jun-14 14:31N 31°49' E 034°39'0 0.0
2016-Jun-14 13:31N 31°49' E 034°39'0 0.0
2016-Jun-14 12:33N 31°49' E 034°39'0 0.0
2016-Jun-14 11:06N 31°49' E 034°39'0 0.0
2016-Jun-14 10:32N 31°49' E 034°39'0 0.0
2016-Jun-14 09:29N 31°49' E 034°39'0 0.0
2016-Jun-14 08:29N 31°49' E 034°39'0 0.0
2016-Jun-14 07:28N 31°49' E 034°39'0 0.0
2016-Jun-14 06:31N 31°49' E 034°39'0 0.0
2016-Jun-14 05:33N 31°49' E 034°39'0 0.0
2016-Jun-14 04:33N 31°49' E 034°39'2 1.8
2016-Jun-14 03:33N 31°51' E 034°38'1 0.1
2016-Jun-13 19:10N 31°51' E 034°37'0 0.0
2016-Jun-13 13:16N 31°51' E 034°37'1810.6
2016-Jun-13 11:34N 32°09' E 034°35'1414.4
2016-Jun-13 10:34N 32°22' E 034°40'1414.5
2016-Jun-13 09:34N 32°36' E 034°44'1514.7
2016-Jun-13 08:34N 32°50' E 034°50'10 9.6
2016-Jun-13 07:33N 32°49' E 035°01'0 0.3
2016-Jun-13 06:31N 32°49' E 035°01'0 0.0
2016-Jun-13 05:33N 32°49' E 035°01'0 0.0
2016-Jun-13 04:33N 32°49' E 035°01'0 0.0
2016-Jun-13 03:33N 32°49' E 035°01'0 0.0
2016-Jun-13 02:32N 32°49' E 035°01'0 0.0
2016-Jun-13 01:32N 32°49' E 035°01'0 0.0
2016-Jun-13 00:31N 32°49' E 035°01'0 0.0
2016-Jun-12 23:31N 32°49' E 035°01'0 0.0
2016-Jun-12 22:33N 32°49' E 035°01'0 0.0
2016-Jun-12 21:33N 32°49' E 035°01'0 0.0
2016-Jun-12 20:33N 32°49' E 035°01'0 0.0
2016-Jun-12 19:32N 32°49' E 035°01'0 0.0
2016-Jun-12 18:32N 32°49' E 035°01'0 0.0
2016-Jun-12 17:31N 32°49' E 035°01'0 0.0
2016-Jun-12 16:31N 32°49' E 035°01'0 0.0
2016-Jun-12 15:33N 32°49' E 035°01'0 0.0
2016-Jun-12 14:33N 32°49' E 035°01'0 0.0
2016-Jun-12 13:32N 32°49' E 035°01'0 0.0
2016-Jun-12 12:32N 32°49' E 035°01'0 0.0
2016-Jun-12 11:29N 32°49' E 035°01'0 0.0
2016-Jun-12 10:31N 32°49' E 035°01'0 0.0
2016-Jun-12 09:31N 32°49' E 035°01'2 2.0
2016-Jun-12 08:33N 32°51' E 035°00'  

Dump ship's entire track history